This is the latest recevied weather packets stored in our database for station/object FHDOHA-13. If no packets are shown the sender has not sent any weather packets the latest 10 day(s).
| Time | Temp. | Humidity | Pressure | Rain* | Wind** | Luminosity | Snow |
|---|---|---|---|---|---|---|---|
| 1777689073 | 10.56° C | 66% | 1023.2 hPa | 0 mm | - | - | - |
| 1777688173 | 11.11° C | 66% | 1023.2 hPa | 0 mm | - | - | - |
| 1777687273 | 11.11° C | 64% | 1023.2 hPa | 0 mm | - | - | - |
| 1777686373 | 11.67° C | 62% | 1023.2 hPa | 0 mm | - | - | - |
| 1777685473 | 12.22° C | 60% | 1023.1 hPa | 0 mm | - | - | - |
| 1777684573 | 12.78° C | 57% | 1023 hPa | 0 mm | - | - | - |
| 1777683673 | 13.33° C | 56% | 1023 hPa | 0 mm | - | - | - |
| 1777682773 | 13.89° C | 53% | 1022.9 hPa | 0 mm | - | - | - |
| 1777681873 | 14.44° C | 52% | 1022.9 hPa | 0 mm | - | - | - |
| 1777680973 | 14.44° C | 52% | 1022.9 hPa | 0 mm | - | - | - |
| 1777680073 | 14.44° C | 52% | 1023.9 hPa | 0 mm | - | - | - |
| 1777679173 | 15° C | 51% | 1023.8 hPa | 0 mm | - | - | - |
| 1777678273 | 15° C | 51% | 1023.8 hPa | 0 mm | - | - | - |
| 1777677373 | 15° C | 50% | 1023.8 hPa | 0 mm | - | - | - |
| 1777676473 | 15° C | 50% | 1023.8 hPa | 0 mm | - | - | - |
| 1777675573 | 15° C | 51% | 1023.8 hPa | 0 mm | - | - | - |
| 1777674673 | 14.44° C | 51% | 1023.9 hPa | 0 mm | - | - | - |
| 1777673773 | 14.44° C | 52% | 1023.9 hPa | 0 mm | - | - | - |
| 1777672873 | 14.44° C | 53% | 1023.9 hPa | 0 mm | - | - | - |
| 1777671973 | 13.89° C | 55% | 1024 hPa | 0 mm | - | - | - |
| 1777671073 | 13.33° C | 56% | 1024 hPa | 0 mm | - | - | - |
| 1777670173 | 13.33° C | 56% | 1024 hPa | 0 mm | - | - | - |
| 1777669273 | 13.33° C | 56% | 1024 hPa | 0 mm | - | - | - |
| 1777668373 | 13.89° C | 54% | 1023.9 hPa | 0 mm | - | - | - |
| 1777667473 | 13.89° C | 55% | 1023.9 hPa | 0 mm | - | - | - |
* Rain latest hour (hover to see other rain measurements)
** Current wind speed in m/s (hover to see current wind gust speed)